Time;durP1;ratioP1;P1;durP2;ratioP2;P2;SDS_P1;SDS_P2;PMS_P1;PMS_P2;Temp;Humidity;BMP_temperature;BMP_pressure;BME280_temperature;BME280_humidity;BME280_pressure;Samples;Min_cycle;Max_cycle;Signal;HPM_P1;HPM_P2
2022/01/21 00:02:27;;;;;;;13.63;5.00;;;4.30;75.00;;;;;;5036783;28;20236;-71
2022/01/21 00:04:55;;;;;;;11.18;4.32;;;4.20;75.00;;;;;;5032546;28;20216;-71
2022/01/21 00:07:23;;;;;;;16.08;5.15;;;4.20;75.10;;;;;;5040769;28;20610;-71
2022/01/21 00:09:51;;;;;;;12.55;4.55;;;4.20;75.20;;;;;;5034650;28;20201;-71
2022/01/21 00:12:19;;;;;;;10.68;4.80;;;4.20;75.10;;;;;;5022417;28;20699;-71
2022/01/21 00:14:48;;;;;;;10.80;5.00;;;4.20;75.20;;;;;;5035151;28;20201;-71
2022/01/21 00:17:18;;;;;;;10.80;4.65;;;4.20;75.20;;;;;;5032559;28;20766;-71
2022/01/21 00:19:48;;;;;;;18.35;5.18;;;4.20;75.30;;;;;;5033900;28;20207;-71
2022/01/21 00:30:35;;;;;;;17.02;4.60;;;4.30;75.40;;;;;;5036227;28;20228;-71
2022/01/21 00:33:03;;;;;;;11.57;4.70;;;4.30;75.40;;;;;;5030286;28;20221;-72
2022/01/21 00:35:32;;;;;;;11.43;4.55;;;4.30;75.30;;;;;;5031835;28;20894;-71
2022/01/21 00:37:59;;;;;;;19.60;5.03;;;4.30;75.30;;;;;;5015503;28;20755;-71
2022/01/21 00:40:29;;;;;;;7.63;4.45;;;4.30;75.20;;;;;;5019966;28;20224;-71
2022/01/21 00:43:15;;;;;;;11.27;5.47;;;4.20;75.00;;;;;;5016002;28;20773;-71
2022/01/21 00:45:45;;;;;;;15.13;6.65;;;4.20;75.10;;;;;;5019524;28;20403;-71
2022/01/21 00:48:13;;;;;;;14.25;4.97;;;4.20;75.20;;;;;;5016964;28;20279;-71
2022/01/21 00:50:41;;;;;;;10.13;4.25;;;4.20;75.30;;;;;;5033577;28;20220;-71
2022/01/21 00:53:09;;;;;;;11.73;5.05;;;4.20;75.20;;;;;;5031514;28;20231;-71
2022/01/21 00:55:37;;;;;;;10.82;4.93;;;4.20;75.40;;;;;;5017176;28;20196;-71
2022/01/21 00:58:07;;;;;;;12.20;4.80;;;4.20;75.30;;;;;;5016207;28;20332;-71
2022/01/21 01:00:36;;;;;;;9.60;4.72;;;4.20;75.30;;;;;;5032823;28;20224;-71
2022/01/21 01:03:06;;;;;;;10.55;4.57;;;4.10;75.40;;;;;;5036549;28;20274;-71
2022/01/21 01:05:34;;;;;;;9.70;5.72;;;4.10;75.40;;;;;;5016981;28;20817;-71
2022/01/21 01:08:03;;;;;;;9.57;4.30;;;4.20;75.50;;;;;;5022250;28;20223;-71
2022/01/21 01:10:48;;;;;;;13.80;4.25;;;4.20;75.40;;;;;;5017474;28;20528;-71
2022/01/21 01:21:37;;;;;;;16.27;5.32;;;4.00;75.10;;;;;;5016112;28;20201;-71
2022/01/21 01:27:36;;;;;;;8.07;4.13;;;3.90;75.20;;;;;;5014150;28;20804;-71
2022/01/21 01:29:40;;;;;;;15.05;5.32;;;4.00;75.50;;;;;;5028886;28;20199;-70
2022/01/21 01:32:08;;;;;;;13.35;5.72;;;4.00;75.60;;;;;;5028198;28;20306;-71
2022/01/21 01:34:38;;;;;;;12.90;4.45;;;4.00;75.70;;;;;;5031939;28;20600;-71
2022/01/21 01:37:13;;;;;;;15.95;4.85;;;4.10;75.50;;;;;;5031354;28;20205;-71
2022/01/21 01:39:44;;;;;;;13.75;5.25;;;4.10;75.60;;;;;;5033788;28;20212;-71
2022/01/21 01:42:49;;;;;;;12.52;6.38;;;4.10;75.60;;;;;;5037109;28;20188;-71
2022/01/21 01:50:53;;;;;;;10.82;4.53;;;4.20;75.40;;;;;;5033791;28;20205;-72
2022/01/21 01:53:25;;;;;;;11.32;4.57;;;4.20;75.60;;;;;;5030635;28;20637;-71
2022/01/21 01:55:55;;;;;;;13.93;4.68;;;4.20;75.40;;;;;;5015327;28;20213;-72
2022/01/21 01:58:23;;;;;;;9.50;4.78;;;4.20;75.30;;;;;;5018435;28;20858;-71
2022/01/21 02:00:51;;;;;;;11.45;5.57;;;4.20;75.30;;;;;;5013708;28;20229;-71
2022/01/21 02:03:19;;;;;;;19.42;4.65;;;4.20;75.40;;;;;;5030527;28;20217;-70
2022/01/21 02:05:47;;;;;;;12.88;4.65;;;4.20;75.40;;;;;;5034589;28;20219;-71
2022/01/21 02:08:17;;;;;;;11.63;4.72;;;4.20;75.40;;;;;;5017979;28;20204;-71
2022/01/21 02:10:45;;;;;;;11.05;6.10;;;4.20;75.40;;;;;;5035074;28;20189;-71
2022/01/21 02:13:24;;;;;;;11.20;4.68;;;4.20;75.40;;;;;;5037888;28;20224;-71
2022/01/21 02:16:07;;;;;;;15.23;5.43;;;4.20;75.60;;;;;;5018176;28;20743;-71
2022/01/21 02:21:37;;;;;;;14.10;4.72;;;4.20;75.60;;;;;;5034855;28;20216;-71
2022/01/21 02:24:10;;;;;;;20.25;5.68;;;4.20;75.60;;;;;;5032035;28;20961;-71
2022/01/21 02:26:38;;;;;;;10.63;4.65;;;4.30;75.70;;;;;;5013803;28;20738;-71
2022/01/21 02:29:08;;;;;;;15.13;5.53;;;4.30;75.60;;;;;;5012566;28;20303;-71
2022/01/21 02:31:37;;;;;;;11.30;5.18;;;4.30;75.70;;;;;;5016987;28;20704;-71
2022/01/21 02:34:07;;;;;;;13.18;5.13;;;4.30;75.60;;;;;;5026063;28;20289;-71
2022/01/21 02:36:37;;;;;;;14.45;5.57;;;4.30;75.60;;;;;;5009658;28;20197;-71
2022/01/21 02:39:05;;;;;;;10.85;4.55;;;4.30;75.60;;;;;;5013543;28;20243;-71
2022/01/21 02:41:33;;;;;;;10.75;4.72;;;4.30;75.60;;;;;;5015863;28;20192;-71
2022/01/21 02:44:01;;;;;;;13.57;6.07;;;4.30;75.60;;;;;;5017585;28;20232;-71
2022/01/21 02:46:35;;;;;;;15.98;6.03;;;4.40;75.60;;;;;;5020791;28;20244;-71
2022/01/21 02:49:04;;;;;;;10.93;4.70;;;4.30;75.40;;;;;;5023112;28;20211;-71
2022/01/21 02:51:32;;;;;;;15.45;5.50;;;4.30;75.40;;;;;;5021643;28;20202;-71
2022/01/21 02:54:05;;;;;;;9.88;4.80;;;4.30;75.30;;;;;;5019321;28;20227;-71
2022/01/21 02:56:34;;;;;;;18.55;7.75;;;4.30;75.30;;;;;;5022660;28;20246;-71
2022/01/21 02:59:03;;;;;;;19.25;6.22;;;4.20;75.40;;;;;;5024145;28;20208;-71
2022/01/21 03:01:34;;;;;;;9.73;5.03;;;4.20;75.40;;;;;;5021420;28;20271;-71
2022/01/21 03:04:05;;;;;;;10.55;5.55;;;4.20;75.40;;;;;;5017602;28;20224;-71
2022/01/21 03:06:36;;;;;;;11.30;5.00;;;4.20;75.30;;;;;;5023129;28;20643;-71
2022/01/21 03:09:08;;;;;;;15.13;5.80;;;4.20;75.40;;;;;;5019019;28;20266;-71
2022/01/21 03:11:36;;;;;;;18.05;6.00;;;4.10;75.50;;;;;;5016293;28;20625;-71
2022/01/21 03:14:04;;;;;;;8.57;4.95;;;4.10;75.50;;;;;;5020131;28;20228;-71
2022/01/21 03:16:32;;;;;;;14.95;6.00;;;4.10;75.60;;;;;;5022950;28;20235;-71
2022/01/21 03:19:00;;;;;;;13.02;5.57;;;4.20;75.50;;;;;;5035766;28;20201;-71
2022/01/21 03:21:29;;;;;;;12.02;6.07;;;4.20;75.60;;;;;;5045880;28;20192;-71
2022/01/21 03:23:58;;;;;;;11.40;5.70;;;4.20;75.40;;;;;;5018851;28;20315;-71
2022/01/21 03:26:28;;;;;;;21.58;5.30;;;4.10;75.40;;;;;;5017191;28;20225;-71
2022/01/21 03:29:00;;;;;;;15.10;6.30;;;4.10;75.40;;;;;;5015918;28;20196;-72
2022/01/21 03:31:33;;;;;;;12.55;4.65;;;4.10;75.50;;;;;;5014386;28;20903;-72
2022/01/21 03:34:04;;;;;;;10.00;4.22;;;4.10;75.60;;;;;;5033633;28;20606;-72
2022/01/21 03:36:35;;;;;;;11.30;5.55;;;4.10;75.50;;;;;;5018546;28;20254;-71
2022/01/21 03:39:04;;;;;;;19.58;5.80;;;4.10;75.50;;;;;;5033135;28;20201;-70
2022/01/21 03:41:33;;;;;;;10.98;5.45;;;4.10;75.50;;;;;;5018810;28;20208;-71
2022/01/21 03:44:02;;;;;;;12.77;5.18;;;4.10;75.50;;;;;;5016830;28;20232;-70
2022/01/21 03:46:32;;;;;;;14.85;6.25;;;4.10;75.40;;;;;;5014861;28;21002;-71
2022/01/21 03:49:03;;;;;;;15.85;5.30;;;4.00;75.40;;;;;;5016597;28;20229;-71
2022/01/21 03:51:31;;;;;;;15.82;5.60;;;4.00;75.50;;;;;;5024448;28;20231;-71
2022/01/21 03:53:59;;;;;;;13.30;5.40;;;4.00;75.50;;;;;;5018599;28;20230;-71
2022/01/21 03:56:30;;;;;;;14.43;5.40;;;4.00;75.40;;;;;;5031536;28;20954;-71
2022/01/21 03:59:01;;;;;;;14.45;5.90;;;4.00;75.50;;;;;;5022442;28;20201;-71
2022/01/21 04:01:29;;;;;;;21.35;6.20;;;4.00;75.50;;;;;;5034507;28;20874;-71
2022/01/21 04:03:58;;;;;;;14.27;5.50;;;4.00;75.50;;;;;;5033306;28;20812;-71
2022/01/21 04:06:26;;;;;;;11.25;5.68;;;4.00;75.40;;;;;;5024773;28;20213;-72
2022/01/21 04:08:54;;;;;;;22.05;5.85;;;4.00;75.50;;;;;;5036281;28;20240;-71
2022/01/21 04:11:23;;;;;;;13.65;5.38;;;3.90;75.50;;;;;;5038490;28;20193;-71
2022/01/21 04:13:52;;;;;;;13.18;6.15;;;3.90;75.60;;;;;;5016565;28;20221;-71
2022/01/21 04:16:23;;;;;;;14.20;5.53;;;3.90;75.50;;;;;;5034325;28;20293;-71
2022/01/21 04:18:51;;;;;;;17.08;5.88;;;3.90;75.60;;;;;;5033098;28;20201;-71
2022/01/21 04:21:19;;;;;;;12.57;5.85;;;3.90;75.60;;;;;;5030171;28;20882;-71
2022/01/21 04:23:48;;;;;;;17.55;5.88;;;3.90;75.60;;;;;;5017715;28;20216;-71
2022/01/21 04:26:31;;;;;;;16.45;5.65;;;3.90;75.60;;;;;;5017597;28;20814;-71
2022/01/21 04:29:08;;;;;;;20.92;6.15;;;3.90;75.60;;;;;;5031695;28;20209;-71
2022/01/21 04:31:45;;;;;;;10.00;5.13;;;3.90;75.70;;;;;;5016195;28;20239;-71
2022/01/21 04:34:16;;;;;;;15.07;5.38;;;3.90;75.90;;;;;;5016746;28;20235;-71
2022/01/21 04:36:44;;;;;;;17.17;5.53;;;4.00;75.80;;;;;;5034284;28;20258;-71
2022/01/21 04:39:18;;;;;;;9.30;5.70;;;4.00;75.80;;;;;;5015500;28;20334;-71
2022/01/21 04:47:16;;;;;;;11.30;5.13;;;4.00;75.80;;;;;;5019968;28;20228;-71
2022/01/21 04:47:31;;;;;;;13.35;7.00;;;4.10;75.80;;;;;;5022092;28;20293;-71
2022/01/21 04:49:59;;;;;;;25.20;6.88;;;4.00;75.70;;;;;;5017790;28;20205;-71
2022/01/21 04:52:29;;;;;;;14.23;7.00;;;4.10;75.60;;;;;;5018558;28;20224;-71
2022/01/21 04:55:08;;;;;;;13.50;7.30;;;4.00;75.60;;;;;;5039428;28;20192;-71
2022/01/21 04:57:38;;;;;;;15.93;6.85;;;4.00;75.60;;;;;;5020126;28;20722;-71
2022/01/21 05:00:08;;;;;;;14.43;6.75;;;4.00;75.60;;;;;;5016110;28;20589;-71
2022/01/21 05:02:38;;;;;;;22.33;7.13;;;4.00;75.70;;;;;;5032754;28;20231;-71
2022/01/21 05:05:10;;;;;;;13.63;7.05;;;4.00;75.70;;;;;;5015662;28;20211;-71
2022/01/21 05:07:40;;;;;;;15.27;7.32;;;4.00;75.70;;;;;;5032521;28;20271;-71
2022/01/21 05:10:08;;;;;;;16.90;8.38;;;4.00;75.70;;;;;;5034083;28;20205;-71
2022/01/21 05:12:37;;;;;;;10.35;6.40;;;4.00;75.70;;;;;;5015800;28;20298;-71
2022/01/21 05:15:14;;;;;;;19.45;7.60;;;4.00;75.60;;;;;;5015274;28;20885;-71
2022/01/21 05:17:48;;;;;;;15.82;7.13;;;3.90;75.60;;;;;;5033555;28;20567;-71
2022/01/21 05:20:22;;;;;;;23.38;7.90;;;3.90;75.60;;;;;;5013197;28;21013;-71
2022/01/21 05:23:16;;;;;;;18.05;8.50;;;3.90;75.70;;;;;;5019928;28;20246;-71
2022/01/21 05:25:44;;;;;;;18.63;7.78;;;3.80;75.60;;;;;;5018486;28;20228;-71
2022/01/21 05:28:13;;;;;;;16.08;7.43;;;3.80;75.70;;;;;;5019117;28;20216;-71
2022/01/21 05:31:05;;;;;;;19.42;7.88;;;3.80;75.80;;;;;;5014027;28;20217;-71
2022/01/21 05:33:45;;;;;;;18.10;7.97;;;3.80;75.80;;;;;;5014549;28;20319;-71
2022/01/21 05:36:27;;;;;;;15.27;7.38;;;3.80;75.80;;;;;;5032933;28;20246;-70
2022/01/21 05:39:15;;;;;;;19.67;7.50;;;3.80;75.70;;;;;;5026438;28;20588;-71
2022/01/21 05:42:07;;;;;;;15.27;7.15;;;3.80;75.70;;;;;;5015800;28;20274;-71
2022/01/21 05:47:51;;;;;;;19.92;7.70;;;3.70;75.80;;;;;;5027970;28;20289;-71
2022/01/21 05:50:52;;;;;;;17.60;7.50;;;3.70;75.80;;;;;;5033712;28;20757;-70
2022/01/21 05:53:46;;;;;;;19.10;7.22;;;3.70;75.90;;;;;;5005282;28;20776;-71
2022/01/21 05:56:25;;;;;;;16.80;7.05;;;3.70;75.90;;;;;;5035226;28;20291;-71
2022/01/21 05:59:16;;;;;;;14.63;7.82;;;3.70;75.90;;;;;;5027198;28;20227;-70
2022/01/21 06:01:44;;;;;;;22.83;8.25;;;3.70;75.80;;;;;;5022840;28;20600;-69
2022/01/21 06:04:13;;;;;;;15.10;6.93;;;3.60;75.90;;;;;;5011340;28;20220;-71
2022/01/21 06:06:42;;;;;;;17.40;8.10;;;3.60;75.90;;;;;;5014201;28;20897;-72
2022/01/21 06:09:10;;;;;;;29.50;8.98;;;3.60;76.00;;;;;;5012957;28;20692;-71
2022/01/21 06:11:38;;;;;;;15.90;9.10;;;3.60;75.90;;;;;;5032788;28;20953;-71
2022/01/21 06:14:07;;;;;;;21.55;9.20;;;3.60;75.90;;;;;;5034196;28;20247;-71
2022/01/21 06:16:35;;;;;;;14.02;7.90;;;3.50;75.90;;;;;;5013731;28;21034;-71
2022/01/21 06:19:03;;;;;;;15.10;8.55;;;3.50;76.00;;;;;;5034296;28;20193;-71
2022/01/21 06:21:31;;;;;;;19.80;7.55;;;3.50;76.00;;;;;;5029668;28;20218;-73
2022/01/21 06:24:00;;;;;;;19.48;7.78;;;3.50;76.20;;;;;;5029698;28;20274;-72
2022/01/21 06:26:28;;;;;;;20.33;7.82;;;3.50;76.20;;;;;;5036757;28;20211;-72
2022/01/21 06:28:56;;;;;;;23.60;8.65;;;3.50;76.20;;;;;;5015659;28;20981;-71
2022/01/21 06:31:24;;;;;;;13.23;7.72;;;3.50;76.10;;;;;;5028224;28;20236;-71
2022/01/21 06:33:53;;;;;;;18.55;8.02;;;3.50;76.20;;;;;;5027691;28;20224;-71
2022/01/21 06:36:21;;;;;;;20.63;9.10;;;3.60;76.20;;;;;;5030058;28;20704;-71
2022/01/21 06:38:49;;;;;;;23.17;7.82;;;3.50;76.20;;;;;;5028471;28;20223;-72
2022/01/21 06:41:18;;;;;;;20.67;7.88;;;3.50;76.10;;;;;;5016692;28;20553;-72
2022/01/21 06:43:46;;;;;;;18.88;8.00;;;3.50;76.30;;;;;;5030825;28;20954;-73
2022/01/21 06:46:14;;;;;;;19.08;7.38;;;3.50;76.20;;;;;;5033167;28;20314;-73
2022/01/21 06:48:43;;;;;;;15.52;8.13;;;3.50;76.20;;;;;;5029351;28;20950;-73
2022/01/21 06:51:11;;;;;;;19.65;7.60;;;3.50;76.20;;;;;;5032219;28;20204;-73
2022/01/21 06:53:39;;;;;;;21.17;8.52;;;3.50;76.30;;;;;;5030964;28;20224;-72
2022/01/21 06:56:07;;;;;;;18.00;9.15;;;3.50;76.30;;;;;;5013780;28;20260;-71
2022/01/21 06:58:36;;;;;;;14.32;8.82;;;3.50;76.30;;;;;;5029793;28;20208;-71
2022/01/21 07:01:04;;;;;;;20.63;8.10;;;3.50;76.40;;;;;;5029371;28;20216;-70
2022/01/21 07:03:32;;;;;;;26.83;9.07;;;3.60;76.40;;;;;;5026453;28;20232;-70
2022/01/21 07:06:01;;;;;;;19.70;7.00;;;3.60;76.40;;;;;;5014121;28;20315;-70
2022/01/21 07:08:29;;;;;;;15.23;7.13;;;3.60;76.40;;;;;;5031319;28;20235;-70
2022/01/21 07:10:57;;;;;;;18.67;9.30;;;3.60;76.40;;;;;;5032624;28;20196;-70
2022/01/21 07:13:24;;;;;;;23.25;7.82;;;3.60;76.40;;;;;;5031056;28;20229;-70
2022/01/21 07:15:54;;;;;;;16.92;8.60;;;3.60;76.40;;;;;;5029813;28;20244;-70
2022/01/21 07:18:22;;;;;;;13.40;8.70;;;3.60;76.40;;;;;;5029105;28;20286;-70
2022/01/21 07:20:50;;;;;;;17.42;7.47;;;3.60;76.40;;;;;;5033264;28;20283;-70
2022/01/21 07:23:18;;;;;;;13.80;7.75;;;3.60;76.30;;;;;;5029482;28;20228;-70
2022/01/21 07:25:46;;;;;;;18.20;7.90;;;3.60;76.30;;;;;;5034613;28;20255;-70
2022/01/21 07:28:14;;;;;;;18.05;7.45;;;3.50;76.20;;;;;;5026772;28;20221;-70
2022/01/21 07:30:42;;;;;;;17.35;7.35;;;3.50;76.30;;;;;;5033862;28;20298;-70
2022/01/21 07:33:13;;;;;;;14.43;8.48;;;3.50;76.30;;;;;;5028906;28;20236;-70
2022/01/21 07:35:41;;;;;;;16.05;9.07;;;3.50;76.40;;;;;;5035242;28;20207;-70
2022/01/21 07:38:11;;;;;;;23.05;8.32;;;3.40;76.40;;;;;;5030203;28;20197;-70
2022/01/21 07:40:39;;;;;;;20.23;8.20;;;3.40;76.50;;;;;;5037006;28;20254;-70
2022/01/21 07:43:07;;;;;;;14.32;7.50;;;3.40;76.50;;;;;;5046018;28;20298;-70
2022/01/21 07:45:36;;;;;;;16.75;7.68;;;3.40;76.50;;;;;;5032000;28;20236;-69
2022/01/21 07:48:06;;;;;;;18.90;9.07;;;3.40;76.60;;;;;;5040096;28;20263;-70
2022/01/21 07:50:36;;;;;;;17.75;8.00;;;3.40;76.60;;;;;;5013882;28;20803;-70
2022/01/21 07:53:05;;;;;;;15.35;8.07;;;3.50;76.70;;;;;;5030120;28;20229;-69
2022/01/21 07:55:34;;;;;;;19.40;8.32;;;3.50;76.70;;;;;;5047752;28;20188;-71
2022/01/21 07:58:02;;;;;;;23.40;8.38;;;3.50;76.60;;;;;;5039437;28;20206;-70
2022/01/21 08:00:31;;;;;;;20.50;8.20;;;3.50;76.70;;;;;;5033529;28;20240;-71
2022/01/21 08:02:59;;;;;;;18.80;9.30;;;3.50;76.70;;;;;;5034202;28;20803;-70
2022/01/21 08:05:32;;;;;;;15.25;8.40;;;3.50;76.70;;;;;;5030341;28;20225;-70
2022/01/21 08:08:02;;;;;;;19.27;8.48;;;3.50;76.80;;;;;;5031955;28;20196;-70
2022/01/21 08:10:31;;;;;;;19.33;9.70;;;3.60;76.70;;;;;;5033887;28;20205;-70
2022/01/21 08:13:00;;;;;;;15.27;8.90;;;3.60;76.80;;;;;;5031383;28;20243;-70
2022/01/21 08:15:28;;;;;;;15.50;8.93;;;3.60;76.80;;;;;;5036136;28;20850;-70
2022/01/21 08:17:56;;;;;;;17.77;9.00;;;3.60;76.90;;;;;;5031476;28;20200;-70
2022/01/21 08:20:25;;;;;;;21.58;9.70;;;3.60;76.80;;;;;;5032270;28;20193;-70
2022/01/21 08:22:53;;;;;;;17.58;9.27;;;3.60;76.70;;;;;;5033794;28;20228;-70
2022/01/21 08:25:22;;;;;;;29.15;10.63;;;3.60;76.70;;;;;;5032354;28;20938;-70
2022/01/21 08:27:50;;;;;;;19.58;9.65;;;3.60;76.70;;;;;;5031876;28;20218;-70
2022/01/21 08:30:18;;;;;;;24.45;9.10;;;3.60;76.80;;;;;;5039464;28;20254;-70
2022/01/21 08:32:46;;;;;;;23.52;10.80;;;3.60;76.80;;;;;;5013527;28;20233;-70
2022/01/21 08:35:14;;;;;;;20.50;9.32;;;3.60;76.80;;;;;;5033581;28;20209;-70
2022/01/21 08:37:42;;;;;;;17.55;9.90;;;3.60;76.80;;;;;;5032703;28;20204;-70
2022/01/21 08:40:11;;;;;;;27.98;9.32;;;3.60;76.80;;;;;;5032257;28;20673;-71
2022/01/21 08:42:40;;;;;;;21.75;9.57;;;3.60;76.80;;;;;;5031027;28;20952;-71
2022/01/21 08:45:11;;;;;;;20.02;9.52;;;3.60;76.80;;;;;;5033323;28;20282;-70
2022/01/21 08:47:40;;;;;;;20.30;8.95;;;3.60;76.80;;;;;;5026965;28;20224;-70
2022/01/21 08:50:10;;;;;;;16.70;8.57;;;3.60;76.80;;;;;;5031050;28;20213;-70
2022/01/21 08:52:40;;;;;;;20.08;10.02;;;3.60;76.80;;;;;;5025581;28;20229;-71
2022/01/21 08:55:10;;;;;;;24.17;10.30;;;3.60;76.90;;;;;;5031861;28;20906;-70
2022/01/21 08:57:41;;;;;;;20.75;10.00;;;3.70;76.90;;;;;;5032047;28;20212;-70
2022/01/21 09:00:12;;;;;;;24.08;9.55;;;3.70;77.00;;;;;;5035578;28;20197;-70
2022/01/21 09:02:40;;;;;;;18.10;8.60;;;3.70;77.00;;;;;;5034462;28;20239;-70
2022/01/21 09:05:09;;;;;;;23.70;9.25;;;3.70;77.00;;;;;;5033259;28;20228;-70
2022/01/21 09:07:44;;;;;;;23.83;10.18;;;3.80;76.90;;;;;;5031840;28;20213;-70
2022/01/21 09:10:13;;;;;;;21.65;9.45;;;3.80;76.90;;;;;;5030328;28;20212;-70
2022/01/21 09:12:42;;;;;;;18.08;9.70;;;3.80;76.80;;;;;;5014125;28;20243;-71
2022/01/21 09:15:10;;;;;;;19.35;9.02;;;3.80;76.80;;;;;;5035245;28;20245;-70
2022/01/21 09:17:39;;;;;;;25.35;8.90;;;3.70;76.80;;;;;;5034905;28;20807;-70
2022/01/21 09:20:09;;;;;;;18.92;9.80;;;3.70;76.90;;;;;;5033708;28;20240;-70
2022/01/21 09:22:37;;;;;;;21.17;9.88;;;3.80;77.00;;;;;;5028847;28;20262;-70
2022/01/21 09:25:05;;;;;;;20.88;9.82;;;3.80;77.00;;;;;;5015062;28;20209;-70
2022/01/21 09:27:33;;;;;;;16.77;9.27;;;3.80;77.00;;;;;;5020792;28;20208;-70
2022/01/21 09:30:05;;;;;;;21.10;10.00;;;3.80;76.90;;;;;;5015418;28;20798;-70
2022/01/21 09:32:35;;;;;;;17.45;10.07;;;3.80;76.90;;;;;;5029226;28;20243;-70
2022/01/21 09:35:03;;;;;;;18.23;10.02;;;3.80;77.00;;;;;;5035412;28;20728;-71
2022/01/21 09:37:31;;;;;;;19.02;9.95;;;3.90;77.10;;;;;;5031316;28;20909;-70
2022/01/21 09:39:58;;;;;;;19.65;10.32;;;3.90;77.00;;;;;;5027400;28;20213;-70
2022/01/21 09:42:27;;;;;;;18.33;9.70;;;3.90;76.90;;;;;;5031891;28;20236;-70
2022/01/21 09:44:55;;;;;;;18.50;9.88;;;3.90;77.00;;;;;;5034580;28;20208;-70
2022/01/21 09:47:27;;;;;;;22.77;9.88;;;3.90;77.00;;;;;;5031051;28;20308;-70
2022/01/21 09:49:56;;;;;;;18.23;8.77;;;3.90;76.90;;;;;;5028895;28;20883;-70
2022/01/21 09:52:26;;;;;;;18.20;8.98;;;3.90;76.80;;;;;;5026372;28;20204;-70
2022/01/21 09:54:54;;;;;;;21.30;10.52;;;3.90;76.90;;;;;;5029713;28;20200;-70
2022/01/21 09:57:23;;;;;;;20.00;9.48;;;3.90;77.00;;;;;;5032203;28;20259;-70
2022/01/21 09:59:53;;;;;;;24.60;10.18;;;3.90;77.00;;;;;;5032256;28;20193;-70
2022/01/21 10:02:26;;;;;;;24.23;9.30;;;4.00;77.00;;;;;;5026548;28;20308;-70
2022/01/21 10:04:57;;;;;;;24.83;10.02;;;4.00;76.90;;;;;;5024521;28;20208;-71
2022/01/21 10:07:25;;;;;;;17.38;9.30;;;4.00;76.90;;;;;;5041020;28;20251;-70
2022/01/21 10:09:54;;;;;;;19.95;10.88;;;4.00;76.90;;;;;;5033135;28;20291;-70
2022/01/21 10:12:23;;;;;;;21.38;10.20;;;4.00;76.90;;;;;;5015821;28;20205;-69
2022/01/21 10:14:51;;;;;;;18.88;10.50;;;4.00;76.90;;;;;;5040050;28;20258;-71
2022/01/21 10:17:39;;;;;;;24.52;9.80;;;4.00;76.90;;;;;;5045208;28;20321;-70
2022/01/21 10:20:29;;;;;;;16.80;8.93;;;4.00;76.90;;;;;;5037132;28;20704;-69
2022/01/21 10:22:58;;;;;;;18.70;11.15;;;4.00;77.10;;;;;;5037640;28;20287;-71
2022/01/21 10:25:27;;;;;;;21.52;10.38;;;4.00;77.10;;;;;;5044996;28;20196;-70
2022/01/21 10:28:10;;;;;;;29.25;11.45;;;4.00;77.10;;;;;;5035570;28;20250;-70
2022/01/21 10:30:39;;;;;;;20.75;10.85;;;4.10;77.10;;;;;;5037715;28;20235;-70
2022/01/21 10:33:21;;;;;;;23.05;10.25;;;4.00;77.00;;;;;;5036367;28;20217;-71
2022/01/21 10:35:51;;;;;;;22.30;11.70;;;3.90;77.10;;;;;;5018010;28;20213;-69
2022/01/21 10:38:23;;;;;;;23.23;12.55;;;3.90;77.20;;;;;;5037384;28;20677;-70
2022/01/21 10:40:51;;;;;;;20.80;10.88;;;4.00;77.40;;;;;;5014129;28;20227;-68
2022/01/21 10:43:22;;;;;;;19.40;11.73;;;4.00;77.40;;;;;;5025663;28;20224;-71
2022/01/21 10:45:51;;;;;;;23.27;12.32;;;4.00;77.40;;;;;;5029035;28;20227;-69
2022/01/21 10:48:20;;;;;;;18.30;10.63;;;4.00;77.40;;;;;;5025748;28;20828;-71
2022/01/21 10:51:05;;;;;;;21.85;11.00;;;4.10;77.60;;;;;;5026723;28;20227;-70
2022/01/21 10:53:34;;;;;;;18.70;9.98;;;4.10;77.50;;;;;;5025712;28;20594;-69
2022/01/21 10:56:11;;;;;;;21.27;10.63;;;4.10;77.60;;;;;;5018529;28;20204;-69
2022/01/21 10:58:40;;;;;;;22.13;9.68;;;4.10;77.60;;;;;;5030964;28;20200;-69
2022/01/21 11:01:13;;;;;;;22.35;11.00;;;4.20;77.50;;;;;;5029886;28;20236;-69
2022/01/21 11:03:57;;;;;;;24.05;10.35;;;4.20;77.50;;;;;;5032924;28;20216;-69
2022/01/21 11:06:27;;;;;;;20.20;10.20;;;4.20;77.40;;;;;;5017682;28;20215;-69
2022/01/21 11:09:16;;;;;;;21.10;9.40;;;4.30;77.50;;;;;;5035689;28;20215;-69
2022/01/21 11:11:44;;;;;;;23.08;9.80;;;4.30;77.60;;;;;;5014822;28;20315;-70
2022/01/21 11:14:14;;;;;;;17.85;9.63;;;4.40;77.50;;;;;;5034707;28;20225;-71
2022/01/21 11:16:45;;;;;;;23.52;9.63;;;4.40;77.50;;;;;;5034077;28;21033;-70
2022/01/21 11:19:35;;;;;;;19.90;8.57;;;4.40;77.10;;;;;;5018020;28;20342;-71
2022/01/21 11:22:05;;;;;;;19.67;10.23;;;4.40;77.30;;;;;;5034049;28;20204;-71
2022/01/21 11:24:34;;;;;;;15.75;9.15;;;4.40;77.30;;;;;;5032431;28;20211;-71
2022/01/21 11:27:08;;;;;;;17.58;8.70;;;4.50;77.30;;;;;;5033569;28;20258;-70
2022/01/21 11:29:36;;;;;;;15.48;8.85;;;4.50;77.30;;;;;;5035863;28;20204;-71
2022/01/21 11:32:05;;;;;;;17.13;9.15;;;4.50;77.30;;;;;;5034785;28;20228;-71
2022/01/21 11:34:34;;;;;;;19.38;10.25;;;4.50;77.10;;;;;;5018158;28;20208;-71
2022/01/21 11:37:04;;;;;;;20.25;8.60;;;4.50;77.20;;;;;;5021930;28;20209;-71
2022/01/21 11:39:34;;;;;;;15.02;10.40;;;4.50;77.10;;;;;;5017555;28;20204;-71
2022/01/21 11:42:05;;;;;;;20.40;8.55;;;4.50;77.20;;;;;;5033984;28;20818;-71
2022/01/21 11:44:37;;;;;;;20.30;9.40;;;4.50;77.20;;;;;;5032617;28;20204;-70
2022/01/21 11:47:27;;;;;;;15.48;7.95;;;4.50;77.20;;;;;;5023859;28;20241;-71
2022/01/21 11:49:57;;;;;;;18.42;8.82;;;4.60;77.30;;;;;;5035510;28;20246;-71
2022/01/21 11:52:26;;;;;;;26.85;9.07;;;4.60;77.10;;;;;;5035670;28;20193;-70
2022/01/21 11:54:55;;;;;;;18.55;9.00;;;4.60;77.10;;;;;;5032318;28;20193;-71
2022/01/21 11:57:31;;;;;;;21.13;8.70;;;4.60;77.00;;;;;;5031376;28;20200;-71
2022/01/21 12:00:05;;;;;;;24.42;9.68;;;4.60;77.00;;;;;;5033587;28;20299;-71
2022/01/21 12:02:34;;;;;;;16.02;8.23;;;4.60;76.90;;;;;;5033820;28;20232;-71
2022/01/21 12:05:07;;;;;;;15.90;7.50;;;4.50;76.20;;;;;;5034875;28;20258;-70
2022/01/21 12:07:53;;;;;;;18.35;9.20;;;4.50;76.80;;;;;;5031163;28;21064;-69
2022/01/21 12:10:35;;;;;;;15.85;7.72;;;4.50;77.10;;;;;;5032894;28;20201;-69
2022/01/21 12:13:10;;;;;;;16.70;9.10;;;4.50;77.00;;;;;;5031322;28;20239;-71
2022/01/21 12:21:57;;;;;;;17.77;8.70;;;4.60;77.30;;;;;;5013009;28;20256;-71
2022/01/21 12:25:02;;;;;;;22.35;9.48;;;4.70;77.00;;;;;;5032364;28;20235;-70
2022/01/21 12:27:32;;;;;;;16.70;8.80;;;4.70;77.20;;;;;;5031190;28;20224;-70
2022/01/21 12:30:27;;;;;;;37.60;10.20;;;4.80;77.20;;;;;;5030214;28;20261;-69
2022/01/21 12:32:57;;;;;;;23.35;9.75;;;4.80;77.10;;;;;;5031654;28;20251;-68
2022/01/21 12:35:46;;;;;;;14.05;8.20;;;4.80;77.10;;;;;;5036116;28;20210;-69
2022/01/21 12:41:33;;;;;;;23.25;9.10;;;4.90;76.90;;;;;;5027171;28;20189;-70
2022/01/21 12:44:04;;;;;;;22.05;9.77;;;4.80;76.90;;;;;;5020193;28;20634;-69
2022/01/21 12:46:36;;;;;;;23.95;8.45;;;4.80;77.00;;;;;;5029156;28;20327;-70
2022/01/21 12:49:38;;;;;;;19.05;9.05;;;4.80;77.10;;;;;;5034495;28;20209;-70
2022/01/21 12:52:54;;;;;;;21.48;9.52;;;4.90;77.10;;;;;;5008609;28;20317;-70
2022/01/21 12:58:15;;;;;;;13.35;8.30;;;4.90;77.00;;;;;;5028192;28;20204;-70
2022/01/21 13:00:45;;;;;;;17.25;8.43;;;4.90;76.90;;;;;;5029506;28;20768;-70
2022/01/21 13:03:20;;;;;;;16.75;9.25;;;4.90;77.00;;;;;;5030387;28;20220;-69
2022/01/21 13:06:00;;;;;;;13.82;8.05;;;4.80;76.80;;;;;;5030468;28;20716;-70
2022/01/21 13:08:35;;;;;;;16.42;8.18;;;4.80;76.90;;;;;;5031343;28;20205;-70
2022/01/21 13:11:16;;;;;;;19.52;8.82;;;4.80;76.90;;;;;;5018533;28;20223;-69
2022/01/21 13:13:53;;;;;;;18.45;8.40;;;4.80;76.90;;;;;;5031055;28;20260;-70
2022/01/21 13:16:27;;;;;;;27.25;9.60;;;4.70;76.80;;;;;;5032360;28;21001;-68
2022/01/21 13:19:06;;;;;;;17.77;8.55;;;4.70;77.00;;;;;;5013277;28;20227;-68
2022/01/21 13:21:35;;;;;;;16.02;7.20;;;4.80;77.10;;;;;;5031079;28;20605;-69
2022/01/21 13:24:21;;;;;;;20.60;9.07;;;4.90;77.00;;;;;;5021093;28;20227;-70
2022/01/21 13:26:52;;;;;;;21.02;8.88;;;4.90;77.00;;;;;;5030651;28;20262;-70
2022/01/21 13:29:29;;;;;;;13.95;8.00;;;5.00;77.20;;;;;;5032414;28;20212;-70
2022/01/21 13:32:01;;;;;;;19.73;8.85;;;5.10;77.10;;;;;;5032789;28;20228;-69
2022/01/21 13:34:31;;;;;;;18.13;7.60;;;5.10;77.00;;;;;;5033750;28;20657;-70
2022/01/21 13:37:00;;;;;;;16.52;8.75;;;5.10;77.00;;;;;;5029431;28;20774;-70
2022/01/21 13:39:31;;;;;;;16.60;9.48;;;5.10;77.10;;;;;;5014925;28;20205;-68
2022/01/21 13:42:03;;;;;;;20.08;8.85;;;5.20;77.10;;;;;;5002645;28;20200;-70
2022/01/21 13:44:38;;;;;;;17.55;8.75;;;5.20;77.10;;;;;;5026557;28;21177;-68
2022/01/21 13:47:23;;;;;;;17.70;8.90;;;5.20;76.90;;;;;;5030387;28;21032;-70
2022/01/21 13:49:51;;;;;;;15.88;8.07;;;5.20;77.00;;;;;;5029960;28;20331;-69
2022/01/21 13:52:20;;;;;;;17.75;8.95;;;5.20;77.00;;;;;;5028518;28;20225;-71
2022/01/21 13:54:50;;;;;;;15.82;8.25;;;5.30;77.00;;;;;;5030438;28;20212;-69
2022/01/21 13:57:27;;;;;;;23.02;8.15;;;5.30;77.00;;;;;;5028287;28;20710;-69